sensor_id;sensor_type;location;lat;lon;timestamp;P1;durP1;ratioP1;P2;durP2;ratioP2
75400;SDS011;63974;47.538;18.972;2024-02-21T00:02:37;2.73;;;1.33;;
75400;SDS011;63974;47.538;18.972;2024-02-21T00:05:40;2.35;;;1.27;;
75400;SDS011;63974;47.538;18.972;2024-02-21T00:08:42;2.53;;;1.48;;
75400;SDS011;63974;47.538;18.972;2024-02-21T00:11:45;4.85;;;1.83;;
75400;SDS011;63974;47.538;18.972;2024-02-21T00:14:48;5.85;;;2.67;;
75400;SDS011;63974;47.538;18.972;2024-02-21T00:17:51;6.43;;;2.77;;
75400;SDS011;63974;47.538;18.972;2024-02-21T00:20:54;2.45;;;1.48;;
75400;SDS011;63974;47.538;18.972;2024-02-21T00:23:56;2.47;;;1.27;;
75400;SDS011;63974;47.538;18.972;2024-02-21T00:26:59;2.67;;;1.33;;
75400;SDS011;63974;47.538;18.972;2024-02-21T00:30:02;7.32;;;2.92;;
75400;SDS011;63974;47.538;18.972;2024-02-21T00:33:05;2.53;;;1.67;;
75400;SDS011;63974;47.538;18.972;2024-02-21T00:36:08;3.88;;;1.48;;
75400;SDS011;63974;47.538;18.972;2024-02-21T00:39:11;3.38;;;1.35;;
75400;SDS011;63974;47.538;18.972;2024-02-21T00:42:13;3.45;;;1.42;;
75400;SDS011;63974;47.538;18.972;2024-02-21T00:45:16;1.83;;;0.82;;
75400;SDS011;63974;47.538;18.972;2024-02-21T00:48:19;3.03;;;0.97;;
75400;SDS011;63974;47.538;18.972;2024-02-21T00:51:21;3.00;;;1.10;;
75400;SDS011;63974;47.538;18.972;2024-02-21T00:54:24;1.75;;;0.45;;
75400;SDS011;63974;47.538;18.972;2024-02-21T01:09:33;2.60;;;0.60;;
75400;SDS011;63974;47.538;18.972;2024-02-21T01:12:36;1.80;;;1.10;;
75400;SDS011;63974;47.538;18.972;2024-02-21T01:15:39;4.78;;;1.65;;
75400;SDS011;63974;47.538;18.972;2024-02-21T01:18:42;3.85;;;1.30;;
75400;SDS011;63974;47.538;18.972;2024-02-21T01:21:44;2.78;;;0.90;;
75400;SDS011;63974;47.538;18.972;2024-02-21T01:24:47;2.23;;;1.43;;
75400;SDS011;63974;47.538;18.972;2024-02-21T01:27:50;2.33;;;1.42;;
75400;SDS011;63974;47.538;18.972;2024-02-21T01:30:53;3.70;;;1.13;;
75400;SDS011;63974;47.538;18.972;2024-02-21T01:33:56;2.50;;;0.65;;
75400;SDS011;63974;47.538;18.972;2024-02-21T01:37:00;2.25;;;1.25;;
75400;SDS011;63974;47.538;18.972;2024-02-21T01:40:07;1.47;;;0.73;;
75400;SDS011;63974;47.538;18.972;2024-02-21T01:43:16;1.73;;;0.73;;
75400;SDS011;63974;47.538;18.972;2024-02-21T01:46:21;2.90;;;0.90;;
75400;SDS011;63974;47.538;18.972;2024-02-21T01:49:25;1.40;;;0.70;;
75400;SDS011;63974;47.538;18.972;2024-02-21T01:52:29;2.55;;;0.85;;
75400;SDS011;63974;47.538;18.972;2024-02-21T01:55:33;2.10;;;0.90;;
75400;SDS011;63974;47.538;18.972;2024-02-21T01:58:36;2.08;;;1.00;;
75400;SDS011;63974;47.538;18.972;2024-02-21T02:01:41;3.00;;;0.90;;
75400;SDS011;63974;47.538;18.972;2024-02-21T02:04:44;2.20;;;0.82;;
75400;SDS011;63974;47.538;18.972;2024-02-21T02:07:47;2.90;;;0.80;;
75400;SDS011;63974;47.538;18.972;2024-02-21T02:10:50;3.60;;;0.90;;
75400;SDS011;63974;47.538;18.972;2024-02-21T02:13:53;3.92;;;0.82;;
75400;SDS011;63974;47.538;18.972;2024-02-21T02:16:55;3.08;;;0.75;;
75400;SDS011;63974;47.538;18.972;2024-02-21T02:19:58;4.28;;;0.98;;
75400;SDS011;63974;47.538;18.972;2024-02-21T02:23:07;3.10;;;1.10;;
75400;SDS011;63974;47.538;18.972;2024-02-21T02:26:12;2.73;;;0.83;;
75400;SDS011;63974;47.538;18.972;2024-02-21T02:29:14;2.00;;;0.88;;
75400;SDS011;63974;47.538;18.972;2024-02-21T02:32:18;4.90;;;0.98;;
75400;SDS011;63974;47.538;18.972;2024-02-21T02:35:21;2.92;;;0.90;;
75400;SDS011;63974;47.538;18.972;2024-02-21T02:38:24;0.93;;;0.80;;
75400;SDS011;63974;47.538;18.972;2024-02-21T02:41:26;3.37;;;1.00;;
75400;SDS011;63974;47.538;18.972;2024-02-21T02:44:29;2.47;;;0.70;;
75400;SDS011;63974;47.538;18.972;2024-02-21T02:47:32;1.50;;;0.70;;
75400;SDS011;63974;47.538;18.972;2024-02-21T02:50:37;3.42;;;0.80;;
75400;SDS011;63974;47.538;18.972;2024-02-21T02:53:39;2.03;;;0.80;;
75400;SDS011;63974;47.538;18.972;2024-02-21T02:56:42;3.07;;;1.20;;
75400;SDS011;63974;47.538;18.972;2024-02-21T02:59:48;2.13;;;0.77;;
75400;SDS011;63974;47.538;18.972;2024-02-21T03:02:52;2.50;;;1.10;;
75400;SDS011;63974;47.538;18.972;2024-02-21T03:05:54;2.47;;;1.05;;
75400;SDS011;63974;47.538;18.972;2024-02-21T03:08:57;2.45;;;1.10;;
75400;SDS011;63974;47.538;18.972;2024-02-21T03:12:02;4.40;;;0.90;;
75400;SDS011;63974;47.538;18.972;2024-02-21T03:15:05;2.42;;;0.93;;
75400;SDS011;63974;47.538;18.972;2024-02-21T03:18:08;2.03;;;1.10;;
75400;SDS011;63974;47.538;18.972;2024-02-21T03:21:11;2.97;;;1.08;;
75400;SDS011;63974;47.538;18.972;2024-02-21T03:24:14;4.18;;;1.08;;
75400;SDS011;63974;47.538;18.972;2024-02-21T03:27:16;2.37;;;1.00;;
75400;SDS011;63974;47.538;18.972;2024-02-21T03:30:19;3.13;;;0.90;;
75400;SDS011;63974;47.538;18.972;2024-02-21T03:33:22;6.07;;;1.75;;
75400;SDS011;63974;47.538;18.972;2024-02-21T03:36:26;2.05;;;0.85;;
75400;SDS011;63974;47.538;18.972;2024-02-21T03:39:31;5.10;;;1.23;;
75400;SDS011;63974;47.538;18.972;2024-02-21T03:42:34;2.23;;;0.97;;
75400;SDS011;63974;47.538;18.972;2024-02-21T03:45:37;3.78;;;1.23;;
75400;SDS011;63974;47.538;18.972;2024-02-21T03:48:40;2.63;;;1.15;;
75400;SDS011;63974;47.538;18.972;2024-02-21T03:51:42;3.42;;;1.63;;
75400;SDS011;63974;47.538;18.972;2024-02-21T03:54:45;3.78;;;1.05;;
75400;SDS011;63974;47.538;18.972;2024-02-21T03:57:48;2.00;;;0.70;;
75400;SDS011;63974;47.538;18.972;2024-02-21T04:00:51;3.70;;;1.23;;
75400;SDS011;63974;47.538;18.972;2024-02-21T04:03:54;2.47;;;1.15;;
75400;SDS011;63974;47.538;18.972;2024-02-21T04:06:57;4.88;;;1.33;;
75400;SDS011;63974;47.538;18.972;2024-02-21T04:09:59;2.42;;;0.60;;
75400;SDS011;63974;47.538;18.972;2024-02-21T04:13:03;3.90;;;0.70;;
75400;SDS011;63974;47.538;18.972;2024-02-21T04:16:07;1.77;;;0.82;;
75400;SDS011;63974;47.538;18.972;2024-02-21T04:19:10;3.28;;;0.93;;
75400;SDS011;63974;47.538;18.972;2024-02-21T04:22:12;1.95;;;1.00;;
75400;SDS011;63974;47.538;18.972;2024-02-21T04:25:15;1.02;;;0.40;;
75400;SDS011;63974;47.538;18.972;2024-02-21T04:28:18;2.73;;;0.60;;
75400;SDS011;63974;47.538;18.972;2024-02-21T04:31:21;4.40;;;1.08;;
75400;SDS011;63974;47.538;18.972;2024-02-21T04:34:23;1.73;;;0.63;;
75400;SDS011;63974;47.538;18.972;2024-02-21T04:37:26;2.70;;;0.82;;
75400;SDS011;63974;47.538;18.972;2024-02-21T04:40:29;2.95;;;0.77;;
75400;SDS011;63974;47.538;18.972;2024-02-21T04:43:33;2.10;;;0.60;;
75400;SDS011;63974;47.538;18.972;2024-02-21T04:46:35;4.43;;;1.15;;
75400;SDS011;63974;47.538;18.972;2024-02-21T04:49:38;1.67;;;0.60;;
75400;SDS011;63974;47.538;18.972;2024-02-21T04:52:42;2.30;;;1.45;;
75400;SDS011;63974;47.538;18.972;2024-02-21T04:55:45;8.20;;;1.00;;
75400;SDS011;63974;47.538;18.972;2024-02-21T04:58:48;4.73;;;0.70;;
75400;SDS011;63974;47.538;18.972;2024-02-21T05:01:51;3.67;;;0.85;;
75400;SDS011;63974;47.538;18.972;2024-02-21T05:04:54;2.63;;;1.08;;
75400;SDS011;63974;47.538;18.972;2024-02-21T05:07:57;2.78;;;0.82;;
75400;SDS011;63974;47.538;18.972;2024-02-21T05:10:59;3.67;;;0.73;;
75400;SDS011;63974;47.538;18.972;2024-02-21T05:14:02;3.17;;;0.93;;
75400;SDS011;63974;47.538;18.972;2024-02-21T05:17:06;3.78;;;0.68;;
75400;SDS011;63974;47.538;18.972;2024-02-21T05:20:09;9.13;;;0.82;;
75400;SDS011;63974;47.538;18.972;2024-02-21T05:23:12;2.22;;;0.73;;
75400;SDS011;63974;47.538;18.972;2024-02-21T05:26:21;5.78;;;1.38;;
75400;SDS011;63974;47.538;18.972;2024-02-21T05:29:24;2.03;;;0.70;;
75400;SDS011;63974;47.538;18.972;2024-02-21T05:32:27;2.40;;;0.80;;
75400;SDS011;63974;47.538;18.972;2024-02-21T05:35:30;3.13;;;0.73;;
75400;SDS011;63974;47.538;18.972;2024-02-21T05:38:33;3.38;;;0.60;;
75400;SDS011;63974;47.538;18.972;2024-02-21T05:41:35;4.50;;;1.00;;
75400;SDS011;63974;47.538;18.972;2024-02-21T05:44:38;4.47;;;0.83;;
75400;SDS011;63974;47.538;18.972;2024-02-21T05:47:41;7.30;;;1.40;;
75400;SDS011;63974;47.538;18.972;2024-02-21T05:50:44;2.33;;;1.00;;
75400;SDS011;63974;47.538;18.972;2024-02-21T05:53:47;3.85;;;1.17;;
75400;SDS011;63974;47.538;18.972;2024-02-21T05:56:50;4.32;;;1.25;;
75400;SDS011;63974;47.538;18.972;2024-02-21T05:59:52;3.73;;;0.93;;
75400;SDS011;63974;47.538;18.972;2024-02-21T06:02:56;3.58;;;1.15;;
75400;SDS011;63974;47.538;18.972;2024-02-21T06:05:59;6.63;;;1.30;;
75400;SDS011;63974;47.538;18.972;2024-02-21T06:09:02;5.30;;;0.80;;
75400;SDS011;63974;47.538;18.972;2024-02-21T06:12:05;4.38;;;1.25;;
75400;SDS011;63974;47.538;18.972;2024-02-21T06:15:08;3.70;;;1.00;;
75400;SDS011;63974;47.538;18.972;2024-02-21T06:18:11;3.88;;;0.75;;
75400;SDS011;63974;47.538;18.972;2024-02-21T06:21:14;3.83;;;0.98;;
75400;SDS011;63974;47.538;18.972;2024-02-21T06:24:19;4.82;;;0.85;;
75400;SDS011;63974;47.538;18.972;2024-02-21T06:27:21;4.28;;;0.73;;
75400;SDS011;63974;47.538;18.972;2024-02-21T06:30:24;4.77;;;1.00;;
75400;SDS011;63974;47.538;18.972;2024-02-21T06:33:27;18.60;;;4.10;;
75400;SDS011;63974;47.538;18.972;2024-02-21T06:36:29;39.05;;;8.70;;
75400;SDS011;63974;47.538;18.972;2024-02-21T06:39:32;21.00;;;5.32;;
75400;SDS011;63974;47.538;18.972;2024-02-21T06:42:35;10.23;;;3.47;;
75400;SDS011;63974;47.538;18.972;2024-02-21T06:45:38;17.57;;;4.67;;
75400;SDS011;63974;47.538;18.972;2024-02-21T06:48:44;7.32;;;2.38;;
75400;SDS011;63974;47.538;18.972;2024-02-21T06:51:49;3.42;;;1.77;;
75400;SDS011;63974;47.538;18.972;2024-02-21T06:54:52;4.30;;;1.65;;
75400;SDS011;63974;47.538;18.972;2024-02-21T06:57:54;6.13;;;1.10;;
75400;SDS011;63974;47.538;18.972;2024-02-21T07:00:57;3.93;;;0.90;;
75400;SDS011;63974;47.538;18.972;2024-02-21T07:04:00;6.65;;;1.20;;
75400;SDS011;63974;47.538;18.972;2024-02-21T07:07:02;6.65;;;1.58;;
75400;SDS011;63974;47.538;18.972;2024-02-21T07:10:06;4.20;;;1.13;;
75400;SDS011;63974;47.538;18.972;2024-02-21T07:13:10;7.72;;;2.20;;
75400;SDS011;63974;47.538;18.972;2024-02-21T07:16:12;3.37;;;1.13;;
75400;SDS011;63974;47.538;18.972;2024-02-21T07:19:15;3.58;;;1.30;;
75400;SDS011;63974;47.538;18.972;2024-02-21T07:22:18;6.50;;;2.30;;
75400;SDS011;63974;47.538;18.972;2024-02-21T07:25:21;5.35;;;1.35;;
75400;SDS011;63974;47.538;18.972;2024-02-21T07:28:24;3.50;;;1.40;;
75400;SDS011;63974;47.538;18.972;2024-02-21T07:31:26;8.37;;;1.40;;
75400;SDS011;63974;47.538;18.972;2024-02-21T07:34:29;3.10;;;1.42;;
75400;SDS011;63974;47.538;18.972;2024-02-21T07:37:32;19.35;;;14.52;;
75400;SDS011;63974;47.538;18.972;2024-02-21T07:40:37;24.05;;;17.52;;
75400;SDS011;63974;47.538;18.972;2024-02-21T07:43:41;18.80;;;11.18;;
75400;SDS011;63974;47.538;18.972;2024-02-21T07:46:43;6.07;;;3.80;;
75400;SDS011;63974;47.538;18.972;2024-02-21T07:49:46;12.82;;;4.95;;
75400;SDS011;63974;47.538;18.972;2024-02-21T07:52:51;7.15;;;3.60;;
75400;SDS011;63974;47.538;18.972;2024-02-21T07:55:54;8.57;;;2.90;;
75400;SDS011;63974;47.538;18.972;2024-02-21T07:58:57;18.58;;;9.85;;
75400;SDS011;63974;47.538;18.972;2024-02-21T08:02:01;49.23;;;20.67;;
75400;SDS011;63974;47.538;18.972;2024-02-21T08:05:04;40.40;;;15.65;;
75400;SDS011;63974;47.538;18.972;2024-02-21T08:08:07;27.90;;;12.65;;
75400;SDS011;63974;47.538;18.972;2024-02-21T08:11:10;41.83;;;17.52;;
75400;SDS011;63974;47.538;18.972;2024-02-21T08:14:13;50.90;;;24.65;;
75400;SDS011;63974;47.538;18.972;2024-02-21T08:17:22;33.30;;;16.07;;
75400;SDS011;63974;47.538;18.972;2024-02-21T08:20:25;54.20;;;25.33;;
75400;SDS011;63974;47.538;18.972;2024-02-21T08:23:28;42.97;;;16.77;;
75400;SDS011;63974;47.538;18.972;2024-02-21T08:26:32;35.08;;;15.65;;
75400;SDS011;63974;47.538;18.972;2024-02-21T08:29:34;19.55;;;8.07;;
75400;SDS011;63974;47.538;18.972;2024-02-21T08:32:37;34.17;;;13.77;;
75400;SDS011;63974;47.538;18.972;2024-02-21T08:35:40;16.00;;;4.57;;
75400;SDS011;63974;47.538;18.972;2024-02-21T08:38:43;14.15;;;5.30;;
75400;SDS011;63974;47.538;18.972;2024-02-21T08:41:45;10.57;;;3.97;;
75400;SDS011;63974;47.538;18.972;2024-02-21T08:44:58;26.15;;;10.27;;
75400;SDS011;63974;47.538;18.972;2024-02-21T08:48:01;13.47;;;4.63;;
75400;SDS011;63974;47.538;18.972;2024-02-21T08:51:04;26.15;;;9.63;;
75400;SDS011;63974;47.538;18.972;2024-02-21T08:54:08;37.78;;;16.58;;
75400;SDS011;63974;47.538;18.972;2024-02-21T08:57:12;29.13;;;13.88;;
75400;SDS011;63974;47.538;18.972;2024-02-21T09:00:16;10.68;;;3.83;;
75400;SDS011;63974;47.538;18.972;2024-02-21T09:03:18;7.47;;;2.80;;
75400;SDS011;63974;47.538;18.972;2024-02-21T09:06:22;12.80;;;5.40;;
75400;SDS011;63974;47.538;18.972;2024-02-21T09:09:25;21.27;;;8.35;;
75400;SDS011;63974;47.538;18.972;2024-02-21T09:12:31;42.58;;;16.35;;
75400;SDS011;63974;47.538;18.972;2024-02-21T09:15:34;82.10;;;36.17;;
75400;SDS011;63974;47.538;18.972;2024-02-21T09:18:37;27.00;;;12.47;;
75400;SDS011;63974;47.538;18.972;2024-02-21T09:21:39;9.30;;;3.15;;
75400;SDS011;63974;47.538;18.972;2024-02-21T09:24:42;9.57;;;5.47;;
75400;SDS011;63974;47.538;18.972;2024-02-21T09:27:45;15.80;;;8.35;;
75400;SDS011;63974;47.538;18.972;2024-02-21T09:30:49;9.02;;;3.00;;
75400;SDS011;63974;47.538;18.972;2024-02-21T09:33:51;19.20;;;7.67;;
75400;SDS011;63974;47.538;18.972;2024-02-21T09:36:54;22.80;;;10.52;;
75400;SDS011;63974;47.538;18.972;2024-02-21T09:39:57;16.05;;;7.10;;
75400;SDS011;63974;47.538;18.972;2024-02-21T09:43:02;11.23;;;3.92;;
75400;SDS011;63974;47.538;18.972;2024-02-21T09:46:10;9.25;;;3.42;;
75400;SDS011;63974;47.538;18.972;2024-02-21T09:49:36;7.83;;;3.97;;
75400;SDS011;63974;47.538;18.972;2024-02-21T09:52:40;10.30;;;3.30;;
75400;SDS011;63974;47.538;18.972;2024-02-21T09:55:45;6.70;;;2.47;;
75400;SDS011;63974;47.538;18.972;2024-02-21T09:58:52;15.15;;;5.85;;
75400;SDS011;63974;47.538;18.972;2024-02-21T10:01:55;2.65;;;1.65;;
75400;SDS011;63974;47.538;18.972;2024-02-21T10:04:58;5.97;;;0.90;;
75400;SDS011;63974;47.538;18.972;2024-02-21T10:08:01;4.00;;;0.90;;
75400;SDS011;63974;47.538;18.972;2024-02-21T10:11:04;3.35;;;0.80;;
75400;SDS011;63974;47.538;18.972;2024-02-21T10:14:07;5.35;;;1.38;;
75400;SDS011;63974;47.538;18.972;2024-02-21T10:17:17;3.60;;;1.10;;
75400;SDS011;63974;47.538;18.972;2024-02-21T10:20:21;2.40;;;0.60;;
75400;SDS011;63974;47.538;18.972;2024-02-21T10:23:26;2.72;;;0.80;;
75400;SDS011;63974;47.538;18.972;2024-02-21T10:26:29;4.80;;;1.25;;
75400;SDS011;63974;47.538;18.972;2024-02-21T10:29:32;4.68;;;1.63;;
75400;SDS011;63974;47.538;18.972;2024-02-21T10:32:35;6.60;;;2.28;;
75400;SDS011;63974;47.538;18.972;2024-02-21T10:35:40;9.10;;;2.20;;
75400;SDS011;63974;47.538;18.972;2024-02-21T10:38:43;4.40;;;0.82;;
75400;SDS011;63974;47.538;18.972;2024-02-21T10:41:45;2.85;;;1.48;;
75400;SDS011;63974;47.538;18.972;2024-02-21T10:44:50;6.43;;;2.05;;
75400;SDS011;63974;47.538;18.972;2024-02-21T10:47:55;3.95;;;1.50;;
75400;SDS011;63974;47.538;18.972;2024-02-21T10:54:21;13.52;;;2.65;;
75400;SDS011;63974;47.538;18.972;2024-02-21T10:57:38;4.20;;;1.90;;
75400;SDS011;63974;47.538;18.972;2024-02-21T11:00:41;4.72;;;1.27;;
75400;SDS011;63974;47.538;18.972;2024-02-21T11:03:45;5.35;;;1.60;;
75400;SDS011;63974;47.538;18.972;2024-02-21T11:06:51;4.67;;;1.80;;
75400;SDS011;63974;47.538;18.972;2024-02-21T11:09:55;2.00;;;1.38;;
75400;SDS011;63974;47.538;18.972;2024-02-21T11:13:05;4.30;;;1.38;;
75400;SDS011;63974;47.538;18.972;2024-02-21T11:16:11;6.25;;;2.13;;
75400;SDS011;63974;47.538;18.972;2024-02-21T11:19:26;6.82;;;1.45;;
75400;SDS011;63974;47.538;18.972;2024-02-21T11:22:40;4.90;;;1.77;;
75400;SDS011;63974;47.538;18.972;2024-02-21T11:25:44;5.28;;;1.40;;
75400;SDS011;63974;47.538;18.972;2024-02-21T11:29:00;4.22;;;1.20;;
75400;SDS011;63974;47.538;18.972;2024-02-21T11:32:05;4.00;;;1.27;;
75400;SDS011;63974;47.538;18.972;2024-02-21T11:35:08;4.60;;;1.42;;
75400;SDS011;63974;47.538;18.972;2024-02-21T11:38:22;4.07;;;1.33;;
75400;SDS011;63974;47.538;18.972;2024-02-21T11:41:25;1.55;;;1.15;;
75400;SDS011;63974;47.538;18.972;2024-02-21T11:44:28;5.15;;;1.50;;
75400;SDS011;63974;47.538;18.972;2024-02-21T11:47:33;2.13;;;0.95;;
75400;SDS011;63974;47.538;18.972;2024-02-21T11:50:36;1.52;;;0.70;;
75400;SDS011;63974;47.538;18.972;2024-02-21T11:53:41;3.30;;;0.90;;
75400;SDS011;63974;47.538;18.972;2024-02-21T11:56:59;1.55;;;0.50;;
75400;SDS011;63974;47.538;18.972;2024-02-21T12:00:12;2.75;;;1.00;;
75400;SDS011;63974;47.538;18.972;2024-02-21T12:03:19;3.83;;;1.30;;
75400;SDS011;63974;47.538;18.972;2024-02-21T12:06:22;3.42;;;1.10;;
75400;SDS011;63974;47.538;18.972;2024-02-21T12:09:25;4.60;;;0.90;;
75400;SDS011;63974;47.538;18.972;2024-02-21T12:12:28;5.25;;;1.73;;
75400;SDS011;63974;47.538;18.972;2024-02-21T12:15:31;5.95;;;1.10;;
75400;SDS011;63974;47.538;18.972;2024-02-21T12:18:34;4.43;;;1.10;;
75400;SDS011;63974;47.538;18.972;2024-02-21T12:21:36;2.78;;;1.02;;
75400;SDS011;63974;47.538;18.972;2024-02-21T12:24:39;1.40;;;0.70;;
75400;SDS011;63974;47.538;18.972;2024-02-21T12:27:49;2.70;;;0.93;;
75400;SDS011;63974;47.538;18.972;2024-02-21T12:30:52;1.83;;;0.75;;
75400;SDS011;63974;47.538;18.972;2024-02-21T12:33:55;2.83;;;1.00;;
75400;SDS011;63974;47.538;18.972;2024-02-21T12:36:58;4.28;;;1.13;;
75400;SDS011;63974;47.538;18.972;2024-02-21T12:40:01;9.43;;;2.70;;
75400;SDS011;63974;47.538;18.972;2024-02-21T12:43:09;62.40;;;30.48;;
75400;SDS011;63974;47.538;18.972;2024-02-21T12:46:17;7.43;;;3.50;;
75400;SDS011;63974;47.538;18.972;2024-02-21T12:49:19;9.80;;;4.18;;
75400;SDS011;63974;47.538;18.972;2024-02-21T12:52:22;9.50;;;7.00;;
75400;SDS011;63974;47.538;18.972;2024-02-21T12:55:26;9.43;;;4.77;;
75400;SDS011;63974;47.538;18.972;2024-02-21T12:58:28;1.73;;;0.63;;
75400;SDS011;63974;47.538;18.972;2024-02-21T13:01:34;3.25;;;1.10;;
75400;SDS011;63974;47.538;18.972;2024-02-21T13:04:41;1.90;;;0.70;;
75400;SDS011;63974;47.538;18.972;2024-02-21T13:07:44;2.95;;;0.90;;
75400;SDS011;63974;47.538;18.972;2024-02-21T13:10:48;5.03;;;2.50;;
75400;SDS011;63974;47.538;18.972;2024-02-21T13:13:55;19.50;;;6.47;;
75400;SDS011;63974;47.538;18.972;2024-02-21T13:16:58;22.00;;;7.80;;
75400;SDS011;63974;47.538;18.972;2024-02-21T13:20:01;30.23;;;10.75;;
75400;SDS011;63974;47.538;18.972;2024-02-21T13:23:04;21.77;;;9.40;;
75400;SDS011;63974;47.538;18.972;2024-02-21T13:26:07;5.73;;;1.63;;
75400;SDS011;63974;47.538;18.972;2024-02-21T13:29:10;3.80;;;1.10;;
75400;SDS011;63974;47.538;18.972;2024-02-21T13:32:12;4.35;;;1.98;;
75400;SDS011;63974;47.538;18.972;2024-02-21T13:35:15;2.78;;;1.95;;
75400;SDS011;63974;47.538;18.972;2024-02-21T13:38:18;3.50;;;1.63;;
75400;SDS011;63974;47.538;18.972;2024-02-21T13:41:21;4.13;;;1.33;;
75400;SDS011;63974;47.538;18.972;2024-02-21T13:44:25;6.70;;;2.10;;
75400;SDS011;63974;47.538;18.972;2024-02-21T13:47:28;4.18;;;1.80;;
75400;SDS011;63974;47.538;18.972;2024-02-21T13:50:32;2.97;;;1.13;;
75400;SDS011;63974;47.538;18.972;2024-02-21T13:53:36;2.58;;;1.10;;
75400;SDS011;63974;47.538;18.972;2024-02-21T13:56:39;5.80;;;1.20;;
75400;SDS011;63974;47.538;18.972;2024-02-21T13:59:42;3.70;;;1.48;;
75400;SDS011;63974;47.538;18.972;2024-02-21T14:02:45;3.72;;;1.33;;
75400;SDS011;63974;47.538;18.972;2024-02-21T14:05:48;3.13;;;1.00;;
75400;SDS011;63974;47.538;18.972;2024-02-21T14:08:51;1.83;;;0.85;;
75400;SDS011;63974;47.538;18.972;2024-02-21T14:11:54;2.57;;;0.80;;
75400;SDS011;63974;47.538;18.972;2024-02-21T14:14:58;2.40;;;0.93;;
75400;SDS011;63974;47.538;18.972;2024-02-21T14:18:01;2.67;;;0.90;;
75400;SDS011;63974;47.538;18.972;2024-02-21T14:21:05;3.30;;;0.90;;
75400;SDS011;63974;47.538;18.972;2024-02-21T14:24:08;3.60;;;1.00;;
75400;SDS011;63974;47.538;18.972;2024-02-21T14:27:10;3.67;;;0.80;;
75400;SDS011;63974;47.538;18.972;2024-02-21T14:30:14;1.90;;;1.00;;
75400;SDS011;63974;47.538;18.972;2024-02-21T14:33:17;2.72;;;1.30;;
75400;SDS011;63974;47.538;18.972;2024-02-21T14:40:16;4.03;;;0.93;;
75400;SDS011;63974;47.538;18.972;2024-02-21T14:43:19;1.70;;;0.57;;
75400;SDS011;63974;47.538;18.972;2024-02-21T14:46:24;2.13;;;0.52;;
75400;SDS011;63974;47.538;18.972;2024-02-21T14:49:26;2.42;;;0.88;;
75400;SDS011;63974;47.538;18.972;2024-02-21T14:52:31;1.90;;;0.50;;
75400;SDS011;63974;47.538;18.972;2024-02-21T14:55:35;3.72;;;0.80;;
75400;SDS011;63974;47.538;18.972;2024-02-21T14:58:38;1.77;;;0.63;;
75400;SDS011;63974;47.538;18.972;2024-02-21T15:01:41;4.07;;;1.65;;
75400;SDS011;63974;47.538;18.972;2024-02-21T15:04:44;4.80;;;0.63;;
75400;SDS011;63974;47.538;18.972;2024-02-21T15:07:47;1.38;;;0.60;;
75400;SDS011;63974;47.538;18.972;2024-02-21T15:10:50;3.20;;;0.65;;
75400;SDS011;63974;47.538;18.972;2024-02-21T15:13:53;2.13;;;0.57;;
75400;SDS011;63974;47.538;18.972;2024-02-21T15:16:56;2.88;;;0.60;;
75400;SDS011;63974;47.538;18.972;2024-02-21T15:19:59;3.80;;;0.73;;
75400;SDS011;63974;47.538;18.972;2024-02-21T15:23:02;2.35;;;0.70;;
75400;SDS011;63974;47.538;18.972;2024-02-21T15:26:07;4.15;;;0.65;;
75400;SDS011;63974;47.538;18.972;2024-02-21T15:29:10;1.37;;;0.53;;
75400;SDS011;63974;47.538;18.972;2024-02-21T15:32:13;5.22;;;0.80;;
75400;SDS011;63974;47.538;18.972;2024-02-21T15:35:16;3.17;;;0.80;;
75400;SDS011;63974;47.538;18.972;2024-02-21T15:38:19;3.35;;;0.70;;
75400;SDS011;63974;47.538;18.972;2024-02-21T15:41:22;5.38;;;0.70;;
75400;SDS011;63974;47.538;18.972;2024-02-21T15:44:25;3.93;;;0.63;;
75400;SDS011;63974;47.538;18.972;2024-02-21T15:47:27;3.63;;;0.57;;
75400;SDS011;63974;47.538;18.972;2024-02-21T15:50:30;2.80;;;0.70;;
75400;SDS011;63974;47.538;18.972;2024-02-21T15:53:33;2.85;;;1.02;;
75400;SDS011;63974;47.538;18.972;2024-02-21T15:56:36;3.97;;;0.98;;
75400;SDS011;63974;47.538;18.972;2024-02-21T15:59:39;5.27;;;0.70;;
75400;SDS011;63974;47.538;18.972;2024-02-21T16:02:42;2.80;;;0.60;;
75400;SDS011;63974;47.538;18.972;2024-02-21T16:05:44;3.42;;;0.90;;
75400;SDS011;63974;47.538;18.972;2024-02-21T16:08:47;2.80;;;0.80;;
75400;SDS011;63974;47.538;18.972;2024-02-21T16:11:52;3.97;;;0.73;;
75400;SDS011;63974;47.538;18.972;2024-02-21T16:14:55;2.27;;;0.70;;
75400;SDS011;63974;47.538;18.972;2024-02-21T16:17:58;1.80;;;1.00;;
75400;SDS011;63974;47.538;18.972;2024-02-21T16:21:01;2.17;;;1.00;;
75400;SDS011;63974;47.538;18.972;2024-02-21T16:24:05;2.75;;;0.88;;
75400;SDS011;63974;47.538;18.972;2024-02-21T16:27:08;1.67;;;0.90;;
75400;SDS011;63974;47.538;18.972;2024-02-21T16:30:14;3.87;;;1.20;;
75400;SDS011;63974;47.538;18.972;2024-02-21T16:33:18;2.38;;;1.00;;
75400;SDS011;63974;47.538;18.972;2024-02-21T16:36:24;5.03;;;1.10;;
75400;SDS011;63974;47.538;18.972;2024-02-21T16:39:27;2.50;;;0.90;;
75400;SDS011;63974;47.538;18.972;2024-02-21T16:42:30;3.63;;;0.88;;
75400;SDS011;63974;47.538;18.972;2024-02-21T16:45:33;2.00;;;0.90;;
75400;SDS011;63974;47.538;18.972;2024-02-21T16:48:37;2.63;;;1.20;;
75400;SDS011;63974;47.538;18.972;2024-02-21T16:51:40;7.18;;;2.15;;
75400;SDS011;63974;47.538;18.972;2024-02-21T16:54:43;4.90;;;2.55;;
75400;SDS011;63974;47.538;18.972;2024-02-21T16:57:46;15.38;;;5.82;;
75400;SDS011;63974;47.538;18.972;2024-02-21T17:00:49;18.20;;;6.10;;
75400;SDS011;63974;47.538;18.972;2024-02-21T17:03:52;26.13;;;8.75;;
75400;SDS011;63974;47.538;18.972;2024-02-21T17:06:54;31.63;;;11.07;;
75400;SDS011;63974;47.538;18.972;2024-02-21T17:09:58;36.60;;;13.63;;
75400;SDS011;63974;47.538;18.972;2024-02-21T17:13:01;38.55;;;13.40;;
75400;SDS011;63974;47.538;18.972;2024-02-21T17:16:06;40.60;;;15.37;;
75400;SDS011;63974;47.538;18.972;2024-02-21T17:19:11;41.42;;;14.50;;
75400;SDS011;63974;47.538;18.972;2024-02-21T17:22:14;38.58;;;14.18;;
75400;SDS011;63974;47.538;18.972;2024-02-21T17:25:17;20.88;;;8.82;;
75400;SDS011;63974;47.538;18.972;2024-02-21T17:28:20;31.25;;;11.10;;
75400;SDS011;63974;47.538;18.972;2024-02-21T17:31:22;28.80;;;10.20;;
75400;SDS011;63974;47.538;18.972;2024-02-21T17:34:25;22.77;;;9.05;;
75400;SDS011;63974;47.538;18.972;2024-02-21T17:37:33;22.80;;;9.90;;
75400;SDS011;63974;47.538;18.972;2024-02-21T17:40:38;26.52;;;10.90;;
75400;SDS011;63974;47.538;18.972;2024-02-21T17:43:41;24.13;;;10.77;;
75400;SDS011;63974;47.538;18.972;2024-02-21T17:46:44;23.60;;;10.53;;
75400;SDS011;63974;47.538;18.972;2024-02-21T17:49:47;30.48;;;12.68;;
75400;SDS011;63974;47.538;18.972;2024-02-21T17:52:50;31.70;;;12.18;;
75400;SDS011;63974;47.538;18.972;2024-02-21T17:55:55;24.48;;;10.32;;
75400;SDS011;63974;47.538;18.972;2024-02-21T17:58:59;27.98;;;11.23;;
75400;SDS011;63974;47.538;18.972;2024-02-21T18:02:02;28.13;;;11.57;;
75400;SDS011;63974;47.538;18.972;2024-02-21T18:05:05;45.45;;;21.17;;
75400;SDS011;63974;47.538;18.972;2024-02-21T18:08:08;83.13;;;42.13;;
75400;SDS011;63974;47.538;18.972;2024-02-21T18:11:11;75.38;;;36.38;;
75400;SDS011;63974;47.538;18.972;2024-02-21T18:14:17;53.33;;;27.23;;
75400;SDS011;63974;47.538;18.972;2024-02-21T18:17:20;27.83;;;13.23;;
75400;SDS011;63974;47.538;18.972;2024-02-21T18:20:23;18.73;;;10.05;;
75400;SDS011;63974;47.538;18.972;2024-02-21T18:23:26;12.45;;;6.43;;
75400;SDS011;63974;47.538;18.972;2024-02-21T18:26:32;15.20;;;6.15;;